sensor_id;sensor_type;location;lat;lon;timestamp;P1;durP1;ratioP1;P2;durP2;ratioP2
58864;SDS011;45702;52.982;6.658;2024-03-22T00:00:33;103.60;;;42.25;;
58864;SDS011;45702;52.982;6.658;2024-03-22T00:02:59;99.30;;;41.22;;
58864;SDS011;45702;52.982;6.658;2024-03-22T00:05:25;96.80;;;37.60;;
58864;SDS011;45702;52.982;6.658;2024-03-22T00:07:51;102.78;;;42.17;;
58864;SDS011;45702;52.982;6.658;2024-03-22T00:10:17;106.53;;;42.10;;
58864;SDS011;45702;52.982;6.658;2024-03-22T00:12:43;103.28;;;42.00;;
58864;SDS011;45702;52.982;6.658;2024-03-22T00:15:09;110.40;;;43.03;;
58864;SDS011;45702;52.982;6.658;2024-03-22T00:17:35;107.82;;;42.58;;
58864;SDS011;45702;52.982;6.658;2024-03-22T00:20:01;113.75;;;43.75;;
58864;SDS011;45702;52.982;6.658;2024-03-22T00:22:27;112.18;;;44.05;;
58864;SDS011;45702;52.982;6.658;2024-03-22T00:24:53;111.15;;;44.08;;
58864;SDS011;45702;52.982;6.658;2024-03-22T00:27:19;114.07;;;44.67;;
58864;SDS011;45702;52.982;6.658;2024-03-22T00:29:45;110.68;;;40.85;;
58864;SDS011;45702;52.982;6.658;2024-03-22T00:32:11;121.03;;;46.72;;
58864;SDS011;45702;52.982;6.658;2024-03-22T00:34:37;121.95;;;48.03;;
58864;SDS011;45702;52.982;6.658;2024-03-22T00:37:03;132.43;;;49.53;;
58864;SDS011;45702;52.982;6.658;2024-03-22T00:39:29;126.72;;;47.72;;
58864;SDS011;45702;52.982;6.658;2024-03-22T00:41:55;133.32;;;49.50;;
58864;SDS011;45702;52.982;6.658;2024-03-22T00:44:21;136.40;;;49.08;;
58864;SDS011;45702;52.982;6.658;2024-03-22T00:46:48;129.25;;;48.97;;
58864;SDS011;45702;52.982;6.658;2024-03-22T00:49:14;130.63;;;49.65;;
58864;SDS011;45702;52.982;6.658;2024-03-22T00:51:40;132.15;;;46.45;;
58864;SDS011;45702;52.982;6.658;2024-03-22T00:54:08;136.15;;;50.35;;
58864;SDS011;45702;52.982;6.658;2024-03-22T00:56:34;134.05;;;49.53;;
58864;SDS011;45702;52.982;6.658;2024-03-22T00:59:00;139.68;;;52.10;;
58864;SDS011;45702;52.982;6.658;2024-03-22T01:01:26;133.57;;;50.63;;
58864;SDS011;45702;52.982;6.658;2024-03-22T01:03:52;141.25;;;50.10;;
58864;SDS011;45702;52.982;6.658;2024-03-22T01:06:18;141.15;;;50.53;;
58864;SDS011;45702;52.982;6.658;2024-03-22T01:08:49;139.05;;;50.67;;
58864;SDS011;45702;52.982;6.658;2024-03-22T01:11:17;147.27;;;53.25;;
58864;SDS011;45702;52.982;6.658;2024-03-22T01:13:43;149.65;;;52.78;;
58864;SDS011;45702;52.982;6.658;2024-03-22T01:16:09;153.25;;;51.15;;
58864;SDS011;45702;52.982;6.658;2024-03-22T01:18:38;146.23;;;54.10;;
58864;SDS011;45702;52.982;6.658;2024-03-22T01:21:04;143.70;;;54.13;;
58864;SDS011;45702;52.982;6.658;2024-03-22T01:23:30;153.35;;;53.42;;
58864;SDS011;45702;52.982;6.658;2024-03-22T01:25:56;154.63;;;52.60;;
58864;SDS011;45702;52.982;6.658;2024-03-22T01:28:23;155.63;;;55.55;;
58864;SDS011;45702;52.982;6.658;2024-03-22T01:30:49;157.93;;;57.45;;
58864;SDS011;45702;52.982;6.658;2024-03-22T01:33:15;151.57;;;51.88;;
58864;SDS011;45702;52.982;6.658;2024-03-22T01:35:41;160.20;;;55.03;;
58864;SDS011;45702;52.982;6.658;2024-03-22T01:38:07;156.65;;;56.13;;
58864;SDS011;45702;52.982;6.658;2024-03-22T01:40:33;146.80;;;50.97;;
58864;SDS011;45702;52.982;6.658;2024-03-22T01:42:59;160.80;;;56.10;;
58864;SDS011;45702;52.982;6.658;2024-03-22T01:45:28;166.38;;;58.85;;
58864;SDS011;45702;52.982;6.658;2024-03-22T01:47:57;161.20;;;56.40;;
58864;SDS011;45702;52.982;6.658;2024-03-22T01:50:24;176.52;;;60.30;;
58864;SDS011;45702;52.982;6.658;2024-03-22T01:52:50;168.73;;;58.50;;
58864;SDS011;45702;52.982;6.658;2024-03-22T01:55:17;170.02;;;59.20;;
58864;SDS011;45702;52.982;6.658;2024-03-22T01:57:43;166.20;;;57.75;;
58864;SDS011;45702;52.982;6.658;2024-03-22T02:00:09;176.90;;;58.63;;
58864;SDS011;45702;52.982;6.658;2024-03-22T02:02:35;176.82;;;60.97;;
58864;SDS011;45702;52.982;6.658;2024-03-22T02:05:14;180.90;;;61.17;;
58864;SDS011;45702;52.982;6.658;2024-03-22T02:07:41;185.57;;;63.35;;
58864;SDS011;45702;52.982;6.658;2024-03-22T02:10:07;172.88;;;62.00;;
58864;SDS011;45702;52.982;6.658;2024-03-22T02:12:36;182.18;;;62.60;;
58864;SDS011;45702;52.982;6.658;2024-03-22T02:15:02;181.75;;;63.25;;
58864;SDS011;45702;52.982;6.658;2024-03-22T02:17:28;182.77;;;63.10;;
58864;SDS011;45702;52.982;6.658;2024-03-22T02:19:54;187.68;;;63.63;;
58864;SDS011;45702;52.982;6.658;2024-03-22T02:22:20;180.68;;;63.72;;
58864;SDS011;45702;52.982;6.658;2024-03-22T02:24:46;181.48;;;63.15;;
58864;SDS011;45702;52.982;6.658;2024-03-22T02:27:12;191.90;;;66.65;;
58864;SDS011;45702;52.982;6.658;2024-03-22T02:29:38;196.68;;;63.95;;
58864;SDS011;45702;52.982;6.658;2024-03-22T02:32:05;198.68;;;67.20;;
58864;SDS011;45702;52.982;6.658;2024-03-22T02:34:31;193.30;;;64.43;;
58864;SDS011;45702;52.982;6.658;2024-03-22T02:36:57;192.18;;;65.22;;
58864;SDS011;45702;52.982;6.658;2024-03-22T02:39:23;206.02;;;68.18;;
58864;SDS011;45702;52.982;6.658;2024-03-22T02:41:50;194.02;;;63.53;;
58864;SDS011;45702;52.982;6.658;2024-03-22T02:44:16;203.77;;;69.05;;
58864;SDS011;45702;52.982;6.658;2024-03-22T02:46:42;201.48;;;67.30;;
58864;SDS011;45702;52.982;6.658;2024-03-22T02:49:08;204.43;;;69.10;;
58864;SDS011;45702;52.982;6.658;2024-03-22T02:51:34;198.50;;;67.82;;
58864;SDS011;45702;52.982;6.658;2024-03-22T02:54:00;200.13;;;68.07;;
58864;SDS011;45702;52.982;6.658;2024-03-22T02:56:27;202.18;;;68.60;;
58864;SDS011;45702;52.982;6.658;2024-03-22T02:58:53;201.30;;;69.53;;
58864;SDS011;45702;52.982;6.658;2024-03-22T03:01:19;213.50;;;71.40;;
58864;SDS011;45702;52.982;6.658;2024-03-22T03:03:45;210.82;;;71.05;;
58864;SDS011;45702;52.982;6.658;2024-03-22T03:06:11;202.02;;;68.53;;
58864;SDS011;45702;52.982;6.658;2024-03-22T03:08:41;209.48;;;69.00;;
58864;SDS011;45702;52.982;6.658;2024-03-22T03:11:07;201.45;;;68.55;;
58864;SDS011;45702;52.982;6.658;2024-03-22T03:13:33;219.60;;;71.53;;
58864;SDS011;45702;52.982;6.658;2024-03-22T03:15:59;217.95;;;70.07;;
58864;SDS011;45702;52.982;6.658;2024-03-22T03:18:25;201.50;;;70.85;;
58864;SDS011;45702;52.982;6.658;2024-03-22T03:20:51;210.65;;;71.85;;
58864;SDS011;45702;52.982;6.658;2024-03-22T03:23:17;211.93;;;69.95;;
58864;SDS011;45702;52.982;6.658;2024-03-22T03:25:43;216.50;;;72.70;;
58864;SDS011;45702;52.982;6.658;2024-03-22T03:28:09;219.20;;;70.93;;
58864;SDS011;45702;52.982;6.658;2024-03-22T03:30:37;220.23;;;71.10;;
58864;SDS011;45702;52.982;6.658;2024-03-22T03:33:03;210.98;;;70.13;;
58864;SDS011;45702;52.982;6.658;2024-03-22T03:35:30;215.77;;;71.55;;
58864;SDS011;45702;52.982;6.658;2024-03-22T03:37:56;216.30;;;71.88;;
58864;SDS011;45702;52.982;6.658;2024-03-22T03:40:22;213.52;;;68.22;;
58864;SDS011;45702;52.982;6.658;2024-03-22T03:42:50;208.32;;;72.00;;
58864;SDS011;45702;52.982;6.658;2024-03-22T03:45:16;221.90;;;70.57;;
58864;SDS011;45702;52.982;6.658;2024-03-22T03:47:42;224.85;;;70.68;;
58864;SDS011;45702;52.982;6.658;2024-03-22T03:50:08;219.57;;;71.22;;
58864;SDS011;45702;52.982;6.658;2024-03-22T03:52:34;214.15;;;69.28;;
58864;SDS011;45702;52.982;6.658;2024-03-22T03:55:00;218.32;;;69.53;;
58864;SDS011;45702;52.982;6.658;2024-03-22T03:57:27;217.98;;;68.65;;
58864;SDS011;45702;52.982;6.658;2024-03-22T03:59:54;212.57;;;68.78;;
58864;SDS011;45702;52.982;6.658;2024-03-22T04:02:20;216.68;;;72.10;;
58864;SDS011;45702;52.982;6.658;2024-03-22T04:04:46;213.27;;;66.85;;
58864;SDS011;45702;52.982;6.658;2024-03-22T04:07:12;211.02;;;69.47;;
58864;SDS011;45702;52.982;6.658;2024-03-22T04:09:38;225.68;;;71.25;;
58864;SDS011;45702;52.982;6.658;2024-03-22T04:12:04;217.02;;;70.30;;
58864;SDS011;45702;52.982;6.658;2024-03-22T04:14:31;209.40;;;68.72;;
58864;SDS011;45702;52.982;6.658;2024-03-22T04:16:57;214.70;;;68.55;;
58864;SDS011;45702;52.982;6.658;2024-03-22T04:19:24;209.32;;;67.18;;
58864;SDS011;45702;52.982;6.658;2024-03-22T04:21:50;214.98;;;70.03;;
58864;SDS011;45702;52.982;6.658;2024-03-22T04:24:16;203.50;;;65.07;;
58864;SDS011;45702;52.982;6.658;2024-03-22T04:26:42;214.30;;;69.38;;
58864;SDS011;45702;52.982;6.658;2024-03-22T04:29:08;211.25;;;67.53;;
58864;SDS011;45702;52.982;6.658;2024-03-22T04:31:34;221.00;;;67.68;;
58864;SDS011;45702;52.982;6.658;2024-03-22T04:34:00;209.90;;;66.35;;
58864;SDS011;45702;52.982;6.658;2024-03-22T04:36:26;203.88;;;65.10;;
58864;SDS011;45702;52.982;6.658;2024-03-22T04:38:52;194.88;;;62.30;;
58864;SDS011;45702;52.982;6.658;2024-03-22T04:41:18;207.77;;;66.38;;
58864;SDS011;45702;52.982;6.658;2024-03-22T04:43:44;212.20;;;64.35;;
58864;SDS011;45702;52.982;6.658;2024-03-22T04:46:10;203.80;;;64.60;;
58864;SDS011;45702;52.982;6.658;2024-03-22T04:48:36;210.88;;;65.20;;
58864;SDS011;45702;52.982;6.658;2024-03-22T04:51:02;198.32;;;63.10;;
58864;SDS011;45702;52.982;6.658;2024-03-22T04:53:28;201.10;;;64.78;;
58864;SDS011;45702;52.982;6.658;2024-03-22T04:55:54;204.35;;;64.15;;
58864;SDS011;45702;52.982;6.658;2024-03-22T04:58:20;192.65;;;61.42;;
58864;SDS011;45702;52.982;6.658;2024-03-22T05:00:47;196.10;;;61.13;;
58864;SDS011;45702;52.982;6.658;2024-03-22T05:03:13;186.30;;;57.55;;
58864;SDS011;45702;52.982;6.658;2024-03-22T05:05:40;184.45;;;58.60;;
58864;SDS011;45702;52.982;6.658;2024-03-22T05:08:07;176.20;;;55.58;;
58864;SDS011;45702;52.982;6.658;2024-03-22T05:10:33;194.20;;;59.05;;
58864;SDS011;45702;52.982;6.658;2024-03-22T05:12:59;188.32;;;56.35;;
58864;SDS011;45702;52.982;6.658;2024-03-22T05:15:26;186.02;;;57.63;;
58864;SDS011;45702;52.982;6.658;2024-03-22T05:17:52;195.45;;;58.80;;
58864;SDS011;45702;52.982;6.658;2024-03-22T05:20:18;182.38;;;57.05;;
58864;SDS011;45702;52.982;6.658;2024-03-22T05:22:44;192.52;;;58.30;;
58864;SDS011;45702;52.982;6.658;2024-03-22T05:25:10;180.05;;;56.75;;
58864;SDS011;45702;52.982;6.658;2024-03-22T05:27:37;191.18;;;57.53;;
58864;SDS011;45702;52.982;6.658;2024-03-22T05:30:04;196.23;;;58.22;;
58864;SDS011;45702;52.982;6.658;2024-03-22T05:32:30;195.93;;;59.67;;
58864;SDS011;45702;52.982;6.658;2024-03-22T05:34:56;184.75;;;58.63;;
58864;SDS011;45702;52.982;6.658;2024-03-22T05:37:22;181.98;;;58.40;;
58864;SDS011;45702;52.982;6.658;2024-03-22T05:39:48;179.13;;;56.55;;
58864;SDS011;45702;52.982;6.658;2024-03-22T05:42:14;178.05;;;55.88;;
58864;SDS011;45702;52.982;6.658;2024-03-22T05:44:40;163.85;;;55.78;;
58864;SDS011;45702;52.982;6.658;2024-03-22T05:47:06;185.98;;;55.65;;
58864;SDS011;45702;52.982;6.658;2024-03-22T05:49:32;176.43;;;55.03;;
58864;SDS011;45702;52.982;6.658;2024-03-22T05:51:58;177.27;;;54.10;;
58864;SDS011;45702;52.982;6.658;2024-03-22T05:54:24;176.77;;;53.92;;
58864;SDS011;45702;52.982;6.658;2024-03-22T05:56:51;184.43;;;53.35;;
58864;SDS011;45702;52.982;6.658;2024-03-22T05:59:17;160.90;;;52.45;;
58864;SDS011;45702;52.982;6.658;2024-03-22T06:01:43;170.15;;;51.58;;
58864;SDS011;45702;52.982;6.658;2024-03-22T06:04:09;185.90;;;53.72;;
58864;SDS011;45702;52.982;6.658;2024-03-22T06:06:35;162.27;;;49.70;;
58864;SDS011;45702;52.982;6.658;2024-03-22T06:09:01;155.60;;;49.05;;
58864;SDS011;45702;52.982;6.658;2024-03-22T06:11:32;158.25;;;51.10;;
58864;SDS011;45702;52.982;6.658;2024-03-22T06:13:58;157.02;;;50.35;;
58864;SDS011;45702;52.982;6.658;2024-03-22T06:16:24;158.10;;;48.70;;
58864;SDS011;45702;52.982;6.658;2024-03-22T06:18:50;154.45;;;50.03;;
58864;SDS011;45702;52.982;6.658;2024-03-22T06:21:16;165.05;;;50.72;;
58864;SDS011;45702;52.982;6.658;2024-03-22T06:23:48;178.27;;;50.60;;
58864;SDS011;45702;52.982;6.658;2024-03-22T06:26:15;169.40;;;51.58;;
58864;SDS011;45702;52.982;6.658;2024-03-22T06:28:41;155.60;;;50.60;;
58864;SDS011;45702;52.982;6.658;2024-03-22T06:31:07;166.55;;;48.90;;
58864;SDS011;45702;52.982;6.658;2024-03-22T06:33:33;160.18;;;51.10;;
58864;SDS011;45702;52.982;6.658;2024-03-22T06:35:59;156.02;;;48.70;;
58864;SDS011;45702;52.982;6.658;2024-03-22T06:38:26;148.07;;;48.15;;
58864;SDS011;45702;52.982;6.658;2024-03-22T06:40:52;145.75;;;45.92;;
58864;SDS011;45702;52.982;6.658;2024-03-22T06:43:18;144.63;;;46.05;;
58864;SDS011;45702;52.982;6.658;2024-03-22T06:45:44;159.23;;;48.03;;
58864;SDS011;45702;52.982;6.658;2024-03-22T06:48:10;155.48;;;47.20;;
58864;SDS011;45702;52.982;6.658;2024-03-22T06:50:36;144.85;;;46.33;;
58864;SDS011;45702;52.982;6.658;2024-03-22T06:53:02;143.90;;;45.63;;
58864;SDS011;45702;52.982;6.658;2024-03-22T06:55:28;157.18;;;47.25;;
58864;SDS011;45702;52.982;6.658;2024-03-22T06:57:54;142.77;;;44.88;;
58864;SDS011;45702;52.982;6.658;2024-03-22T07:00:20;141.18;;;44.75;;
58864;SDS011;45702;52.982;6.658;2024-03-22T07:02:46;141.07;;;44.83;;
58864;SDS011;45702;52.982;6.658;2024-03-22T07:05:12;132.30;;;42.60;;
58864;SDS011;45702;52.982;6.658;2024-03-22T07:07:38;135.75;;;43.72;;
58864;SDS011;45702;52.982;6.658;2024-03-22T07:10:04;131.23;;;43.60;;
58864;SDS011;45702;52.982;6.658;2024-03-22T07:12:34;134.88;;;44.13;;
58864;SDS011;45702;52.982;6.658;2024-03-22T07:15:00;133.57;;;42.88;;
58864;SDS011;45702;52.982;6.658;2024-03-22T07:17:27;130.93;;;42.67;;
58864;SDS011;45702;52.982;6.658;2024-03-22T07:19:53;125.97;;;42.35;;
58864;SDS011;45702;52.982;6.658;2024-03-22T07:22:21;128.07;;;41.95;;
58864;SDS011;45702;52.982;6.658;2024-03-22T07:24:47;121.18;;;41.13;;
58864;SDS011;45702;52.982;6.658;2024-03-22T07:27:15;122.28;;;41.63;;
58864;SDS011;45702;52.982;6.658;2024-03-22T07:29:41;126.78;;;41.15;;
58864;SDS011;45702;52.982;6.658;2024-03-22T07:32:07;124.65;;;40.03;;
58864;SDS011;45702;52.982;6.658;2024-03-22T07:34:33;114.22;;;39.45;;
58864;SDS011;45702;52.982;6.658;2024-03-22T07:36:59;115.75;;;36.92;;
58864;SDS011;45702;52.982;6.658;2024-03-22T07:39:25;98.25;;;34.58;;
58864;SDS011;45702;52.982;6.658;2024-03-22T07:41:51;105.65;;;34.88;;
58864;SDS011;45702;52.982;6.658;2024-03-22T07:44:17;107.20;;;35.80;;
58864;SDS011;45702;52.982;6.658;2024-03-22T07:46:44;105.78;;;34.05;;
58864;SDS011;45702;52.982;6.658;2024-03-22T07:49:11;103.43;;;33.95;;
58864;SDS011;45702;52.982;6.658;2024-03-22T07:51:38;95.72;;;34.58;;
58864;SDS011;45702;52.982;6.658;2024-03-22T07:54:04;93.63;;;32.72;;
58864;SDS011;45702;52.982;6.658;2024-03-22T07:56:30;97.72;;;34.25;;
58864;SDS011;45702;52.982;6.658;2024-03-22T07:58:56;105.20;;;33.53;;
58864;SDS011;45702;52.982;6.658;2024-03-22T08:01:22;107.78;;;35.17;;
58864;SDS011;45702;52.982;6.658;2024-03-22T08:03:49;99.72;;;33.97;;
58864;SDS011;45702;52.982;6.658;2024-03-22T08:06:15;108.85;;;33.63;;
58864;SDS011;45702;52.982;6.658;2024-03-22T08:08:41;96.57;;;33.65;;
58864;SDS011;45702;52.982;6.658;2024-03-22T08:11:07;103.88;;;31.92;;
58864;SDS011;45702;52.982;6.658;2024-03-22T08:13:34;104.93;;;32.90;;
58864;SDS011;45702;52.982;6.658;2024-03-22T08:16:00;101.35;;;31.85;;
58864;SDS011;45702;52.982;6.658;2024-03-22T08:18:26;91.88;;;30.33;;
58864;SDS011;45702;52.982;6.658;2024-03-22T08:20:52;95.72;;;32.05;;
58864;SDS011;45702;52.982;6.658;2024-03-22T08:23:18;101.07;;;33.70;;
58864;SDS011;45702;52.982;6.658;2024-03-22T08:25:45;116.18;;;34.72;;
58864;SDS011;45702;52.982;6.658;2024-03-22T08:28:11;93.55;;;32.85;;
58864;SDS011;45702;52.982;6.658;2024-03-22T08:30:41;97.95;;;32.60;;
58864;SDS011;45702;52.982;6.658;2024-03-22T08:33:07;98.75;;;31.48;;
58864;SDS011;45702;52.982;6.658;2024-03-22T08:35:33;96.97;;;32.47;;
58864;SDS011;45702;52.982;6.658;2024-03-22T08:37:59;111.57;;;33.38;;
58864;SDS011;45702;52.982;6.658;2024-03-22T08:40:25;112.68;;;33.63;;
58864;SDS011;45702;52.982;6.658;2024-03-22T08:42:52;112.82;;;33.72;;
58864;SDS011;45702;52.982;6.658;2024-03-22T08:45:18;106.45;;;32.97;;
58864;SDS011;45702;52.982;6.658;2024-03-22T08:47:45;98.13;;;31.63;;
58864;SDS011;45702;52.982;6.658;2024-03-22T08:50:11;113.38;;;32.88;;
58864;SDS011;45702;52.982;6.658;2024-03-22T08:52:39;101.85;;;32.90;;
58864;SDS011;45702;52.982;6.658;2024-03-22T08:55:05;97.28;;;31.92;;
58864;SDS011;45702;52.982;6.658;2024-03-22T08:57:32;117.88;;;33.55;;
58864;SDS011;45702;52.982;6.658;2024-03-22T08:59:58;104.53;;;32.83;;
58864;SDS011;45702;52.982;6.658;2024-03-22T09:02:24;90.25;;;30.63;;
58864;SDS011;45702;52.982;6.658;2024-03-22T09:04:51;97.90;;;30.92;;
58864;SDS011;45702;52.982;6.658;2024-03-22T09:07:18;98.03;;;29.55;;
58864;SDS011;45702;52.982;6.658;2024-03-22T09:09:44;90.95;;;29.88;;
58864;SDS011;45702;52.982;6.658;2024-03-22T09:12:10;98.07;;;29.38;;
58864;SDS011;45702;52.982;6.658;2024-03-22T09:14:36;86.50;;;28.58;;
58864;SDS011;45702;52.982;6.658;2024-03-22T09:17:03;89.13;;;29.65;;
58864;SDS011;45702;52.982;6.658;2024-03-22T09:19:29;85.68;;;29.20;;
58864;SDS011;45702;52.982;6.658;2024-03-22T09:21:55;85.22;;;28.08;;
58864;SDS011;45702;52.982;6.658;2024-03-22T09:24:21;81.78;;;26.85;;
58864;SDS011;45702;52.982;6.658;2024-03-22T09:26:47;75.47;;;26.25;;
58864;SDS011;45702;52.982;6.658;2024-03-22T09:29:13;83.03;;;27.60;;
58864;SDS011;45702;52.982;6.658;2024-03-22T09:31:39;77.28;;;26.25;;
58864;SDS011;45702;52.982;6.658;2024-03-22T09:34:08;65.18;;;24.73;;
58864;SDS011;45702;52.982;6.658;2024-03-22T09:36:34;68.60;;;23.98;;
58864;SDS011;45702;52.982;6.658;2024-03-22T09:39:04;69.78;;;22.83;;
58864;SDS011;45702;52.982;6.658;2024-03-22T09:41:31;52.55;;;20.95;;
58864;SDS011;45702;52.982;6.658;2024-03-22T09:43:58;69.72;;;22.02;;
58864;SDS011;45702;52.982;6.658;2024-03-22T09:46:27;63.70;;;21.75;;
58864;SDS011;45702;52.982;6.658;2024-03-22T09:48:57;57.10;;;20.33;;
58864;SDS011;45702;52.982;6.658;2024-03-22T09:51:46;52.70;;;19.88;;
58864;SDS011;45702;52.982;6.658;2024-03-22T09:54:14;59.78;;;21.35;;
58864;SDS011;45702;52.982;6.658;2024-03-22T09:56:41;53.80;;;20.52;;
58864;SDS011;45702;52.982;6.658;2024-03-22T09:59:08;54.58;;;20.67;;
58864;SDS011;45702;52.982;6.658;2024-03-22T10:01:37;54.22;;;20.10;;
58864;SDS011;45702;52.982;6.658;2024-03-22T10:04:05;53.47;;;19.67;;
58864;SDS011;45702;52.982;6.658;2024-03-22T10:06:33;54.17;;;20.40;;
58864;SDS011;45702;52.982;6.658;2024-03-22T10:08:59;50.85;;;19.88;;
58864;SDS011;45702;52.982;6.658;2024-03-22T10:11:26;56.85;;;20.05;;
58864;SDS011;45702;52.982;6.658;2024-03-22T10:13:52;58.53;;;19.58;;
58864;SDS011;45702;52.982;6.658;2024-03-22T10:16:20;55.03;;;20.43;;
58864;SDS011;45702;52.982;6.658;2024-03-22T10:18:46;52.55;;;19.73;;
58864;SDS011;45702;52.982;6.658;2024-03-22T10:21:18;52.38;;;19.08;;
58864;SDS011;45702;52.982;6.658;2024-03-22T10:23:48;46.47;;;18.23;;
58864;SDS011;45702;52.982;6.658;2024-03-22T10:26:19;46.88;;;18.75;;
58864;SDS011;45702;52.982;6.658;2024-03-22T10:28:45;45.92;;;18.35;;
58864;SDS011;45702;52.982;6.658;2024-03-22T10:31:12;50.55;;;18.92;;
58864;SDS011;45702;52.982;6.658;2024-03-22T10:33:38;41.55;;;16.35;;
58864;SDS011;45702;52.982;6.658;2024-03-22T10:36:09;41.78;;;16.10;;
58864;SDS011;45702;52.982;6.658;2024-03-22T10:38:36;39.88;;;16.20;;
58864;SDS011;45702;52.982;6.658;2024-03-22T10:41:03;44.25;;;16.60;;
58864;SDS011;45702;52.982;6.658;2024-03-22T10:43:30;34.90;;;14.52;;
58864;SDS011;45702;52.982;6.658;2024-03-22T10:45:58;35.90;;;15.07;;
58864;SDS011;45702;52.982;6.658;2024-03-22T10:48:27;41.53;;;15.20;;
58864;SDS011;45702;52.982;6.658;2024-03-22T10:50:54;33.28;;;14.20;;
58864;SDS011;45702;52.982;6.658;2024-03-22T10:53:22;31.58;;;13.18;;
58864;SDS011;45702;52.982;6.658;2024-03-22T10:55:52;35.90;;;13.73;;
58864;SDS011;45702;52.982;6.658;2024-03-22T10:58:22;28.88;;;11.75;;
58864;SDS011;45702;52.982;6.658;2024-03-22T11:00:52;28.58;;;11.55;;
58864;SDS011;45702;52.982;6.658;2024-03-22T11:03:20;30.38;;;12.73;;
58864;SDS011;45702;52.982;6.658;2024-03-22T11:05:46;29.92;;;12.25;;
58864;SDS011;45702;52.982;6.658;2024-03-22T11:08:13;26.45;;;11.88;;
58864;SDS011;45702;52.982;6.658;2024-03-22T11:10:39;20.95;;;10.10;;
58864;SDS011;45702;52.982;6.658;2024-03-22T11:13:06;22.55;;;9.77;;
58864;SDS011;45702;52.982;6.658;2024-03-22T11:15:33;22.98;;;10.13;;
58864;SDS011;45702;52.982;6.658;2024-03-22T11:18:00;23.23;;;9.82;;
58864;SDS011;45702;52.982;6.658;2024-03-22T11:20:27;19.65;;;8.75;;
58864;SDS011;45702;52.982;6.658;2024-03-22T11:22:53;19.23;;;8.40;;
58864;SDS011;45702;52.982;6.658;2024-03-22T11:25:19;25.00;;;9.90;;
58864;SDS011;45702;52.982;6.658;2024-03-22T11:27:46;19.55;;;9.30;;
58864;SDS011;45702;52.982;6.658;2024-03-22T11:30:12;19.95;;;8.68;;
58864;SDS011;45702;52.982;6.658;2024-03-22T11:32:39;17.95;;;8.23;;
58864;SDS011;45702;52.982;6.658;2024-03-22T11:35:12;17.13;;;8.07;;
58864;SDS011;45702;52.982;6.658;2024-03-22T11:37:39;15.02;;;6.97;;
58864;SDS011;45702;52.982;6.658;2024-03-22T11:40:06;15.10;;;7.05;;
58864;SDS011;45702;52.982;6.658;2024-03-22T11:42:33;14.32;;;6.40;;
58864;SDS011;45702;52.982;6.658;2024-03-22T11:45:00;15.38;;;6.68;;
58864;SDS011;45702;52.982;6.658;2024-03-22T11:47:27;15.70;;;6.72;;
58864;SDS011;45702;52.982;6.658;2024-03-22T11:49:53;14.73;;;6.68;;
58864;SDS011;45702;52.982;6.658;2024-03-22T11:52:23;13.23;;;6.88;;
58864;SDS011;45702;52.982;6.658;2024-03-22T11:54:50;17.30;;;7.28;;
58864;SDS011;45702;52.982;6.658;2024-03-22T11:57:17;13.60;;;6.97;;
58864;SDS011;45702;52.982;6.658;2024-03-22T11:59:43;14.30;;;7.18;;
58864;SDS011;45702;52.982;6.658;2024-03-22T12:02:09;17.20;;;7.68;;
58864;SDS011;45702;52.982;6.658;2024-03-22T12:04:35;14.68;;;7.13;;
58864;SDS011;45702;52.982;6.658;2024-03-22T12:07:01;15.88;;;6.50;;
58864;SDS011;45702;52.982;6.658;2024-03-22T12:09:27;12.73;;;5.93;;
58864;SDS011;45702;52.982;6.658;2024-03-22T12:11:55;12.80;;;6.07;;
58864;SDS011;45702;52.982;6.658;2024-03-22T12:14:21;13.52;;;5.93;;
58864;SDS011;45702;52.982;6.658;2024-03-22T12:16:47;13.90;;;5.88;;
58864;SDS011;45702;52.982;6.658;2024-03-22T12:19:13;13.00;;;5.30;;
58864;SDS011;45702;52.982;6.658;2024-03-22T12:21:39;16.08;;;5.10;;
58864;SDS011;45702;52.982;6.658;2024-03-22T12:24:05;13.63;;;5.18;;
58864;SDS011;45702;52.982;6.658;2024-03-22T12:26:31;13.40;;;4.60;;
58864;SDS011;45702;52.982;6.658;2024-03-22T12:28:57;10.38;;;4.40;;
58864;SDS011;45702;52.982;6.658;2024-03-22T12:31:24;16.17;;;4.65;;
58864;SDS011;45702;52.982;6.658;2024-03-22T12:33:50;14.70;;;6.00;;
58864;SDS011;45702;52.982;6.658;2024-03-22T12:36:16;14.60;;;5.22;;
58864;SDS011;45702;52.982;6.658;2024-03-22T12:38:42;13.75;;;5.10;;
58864;SDS011;45702;52.982;6.658;2024-03-22T12:41:08;22.27;;;5.03;;
58864;SDS011;45702;52.982;6.658;2024-03-22T12:43:34;18.30;;;5.63;;
58864;SDS011;45702;52.982;6.658;2024-03-22T12:46:01;16.42;;;5.70;;
58864;SDS011;45702;52.982;6.658;2024-03-22T12:48:28;11.85;;;5.13;;
58864;SDS011;45702;52.982;6.658;2024-03-22T12:50:54;15.98;;;5.35;;
58864;SDS011;45702;52.982;6.658;2024-03-22T12:53:20;18.35;;;5.60;;
58864;SDS011;45702;52.982;6.658;2024-03-22T12:55:46;18.70;;;5.47;;
58864;SDS011;45702;52.982;6.658;2024-03-22T12:58:12;17.17;;;5.65;;
58864;SDS011;45702;52.982;6.658;2024-03-22T13:00:38;20.55;;;5.78;;
58864;SDS011;45702;52.982;6.658;2024-03-22T13:03:04;16.55;;;4.97;;
58864;SDS011;45702;52.982;6.658;2024-03-22T13:05:31;13.55;;;5.55;;
58864;SDS011;45702;52.982;6.658;2024-03-22T13:07:57;16.48;;;6.60;;
58864;SDS011;45702;52.982;6.658;2024-03-22T13:10:23;24.50;;;7.53;;
58864;SDS011;45702;52.982;6.658;2024-03-22T13:12:49;24.13;;;10.38;;
58864;SDS011;45702;52.982;6.658;2024-03-22T13:15:15;19.90;;;8.18;;
58864;SDS011;45702;52.982;6.658;2024-03-22T13:17:41;19.80;;;6.80;;
58864;SDS011;45702;52.982;6.658;2024-03-22T13:20:07;19.63;;;6.47;;
58864;SDS011;45702;52.982;6.658;2024-03-22T13:22:36;18.70;;;6.65;;
58864;SDS011;45702;52.982;6.658;2024-03-22T13:25:02;18.30;;;6.47;;
58864;SDS011;45702;52.982;6.658;2024-03-22T13:27:31;29.23;;;7.97;;
58864;SDS011;45702;52.982;6.658;2024-03-22T13:29:57;18.02;;;6.80;;
58864;SDS011;45702;52.982;6.658;2024-03-22T13:32:23;22.80;;;8.10;;
58864;SDS011;45702;52.982;6.658;2024-03-22T13:34:49;21.33;;;7.20;;
58864;SDS011;45702;52.982;6.658;2024-03-22T13:37:16;16.02;;;7.63;;
58864;SDS011;45702;52.982;6.658;2024-03-22T13:39:42;22.83;;;8.27;;
58864;SDS011;45702;52.982;6.658;2024-03-22T13:42:08;26.75;;;8.27;;
58864;SDS011;45702;52.982;6.658;2024-03-22T13:44:34;27.17;;;8.68;;
58864;SDS011;45702;52.982;6.658;2024-03-22T13:47:00;23.25;;;7.70;;
58864;SDS011;45702;52.982;6.658;2024-03-22T13:49:26;29.00;;;8.85;;
58864;SDS011;45702;52.982;6.658;2024-03-22T13:51:53;32.58;;;9.45;;
58864;SDS011;45702;52.982;6.658;2024-03-22T13:54:19;31.77;;;8.98;;
58864;SDS011;45702;52.982;6.658;2024-03-22T13:56:45;30.00;;;9.82;;
58864;SDS011;45702;52.982;6.658;2024-03-22T13:59:11;36.20;;;9.43;;
58864;SDS011;45702;52.982;6.658;2024-03-22T14:01:39;34.47;;;10.10;;
58864;SDS011;45702;52.982;6.658;2024-03-22T14:04:09;35.00;;;10.60;;
58864;SDS011;45702;52.982;6.658;2024-03-22T14:09:01;38.80;;;10.30;;
58864;SDS011;45702;52.982;6.658;2024-03-22T14:11:29;44.72;;;11.32;;
58864;SDS011;45702;52.982;6.658;2024-03-22T14:13:56;39.47;;;10.80;;